createdAt,value
2018-07-17T00:00:44.239Z,171.65
2018-07-17T00:03:15.436Z,170.00
2018-07-17T00:05:46.616Z,169.82
2018-07-17T00:08:17.567Z,169.10
2018-07-17T00:10:48.847Z,170.45
2018-07-17T00:13:20.109Z,171.28
2018-07-17T00:15:51.093Z,166.85
2018-07-17T00:18:22.195Z,172.62
2018-07-17T00:20:53.249Z,167.07
2018-07-17T00:23:24.689Z,173.53
2018-07-17T00:25:55.731Z,172.05
2018-07-17T00:28:26.861Z,171.77
2018-07-17T00:30:57.815Z,171.10
2018-07-17T00:33:29.284Z,171.05
2018-07-17T00:36:00.264Z,171.13
2018-07-17T00:38:32.013Z,170.85
2018-07-17T00:41:03.378Z,169.80
2018-07-17T00:43:34.371Z,166.50
2018-07-17T00:46:06.456Z,169.40
2018-07-17T00:48:37.460Z,171.25
2018-07-17T00:51:08.438Z,168.90
2018-07-17T00:53:39.494Z,169.40
2018-07-17T00:56:11.148Z,167.13
2018-07-17T00:58:44.486Z,167.28
2018-07-17T01:01:20.591Z,168.78
2018-07-17T01:03:56.436Z,167.03
2018-07-17T01:06:32.431Z,168.72
2018-07-17T01:09:09.410Z,166.10
2018-07-17T01:11:45.471Z,167.05
2018-07-17T01:14:23.542Z,166.62
2018-07-17T01:16:55.113Z,169.37
2018-07-17T01:19:26.316Z,164.97
2018-07-17T01:21:57.324Z,166.77
2018-07-17T01:24:29.076Z,167.60
2018-07-17T01:27:00.306Z,166.95
2018-07-17T01:29:31.388Z,167.82
2018-07-17T01:32:03.583Z,166.77
2018-07-17T01:34:34.571Z,168.07
2018-07-17T01:37:05.420Z,170.80
2018-07-17T01:39:36.555Z,167.20
2018-07-17T01:42:07.647Z,170.57
2018-07-17T01:44:38.750Z,168.57
2018-07-17T01:47:09.783Z,171.25
2018-07-17T01:49:40.847Z,169.47
2018-07-17T01:52:11.887Z,168.85
2018-07-17T01:54:42.941Z,167.60
2018-07-17T01:57:13.995Z,169.82
2018-07-17T01:59:45.217Z,169.50
2018-07-17T02:02:16.171Z,167.30
2018-07-17T02:04:47.589Z,169.28
2018-07-17T02:07:18.500Z,171.15
2018-07-17T02:09:49.554Z,168.30
2018-07-17T02:12:21.151Z,171.55
2018-07-17T02:14:52.234Z,168.25
2018-07-17T02:17:23.172Z,168.68
2018-07-17T02:19:54.168Z,170.55
2018-07-17T02:22:25.140Z,168.40
2018-07-17T02:24:55.975Z,162.85
2018-07-17T02:27:27.191Z,168.05
2018-07-17T02:29:58.269Z,167.45
2018-07-17T02:32:29.212Z,165.25
2018-07-17T02:35:00.247Z,167.05
2018-07-17T02:37:31.345Z,166.10
2018-07-17T02:40:03.140Z,168.90
2018-07-17T02:42:34.296Z,169.47
2018-07-17T02:45:06.418Z,167.25
2018-07-17T02:47:38.134Z,169.35
2018-07-17T02:50:09.352Z,166.35
2018-07-17T02:52:40.639Z,169.50
2018-07-17T02:55:11.693Z,169.30
2018-07-17T02:57:42.815Z,167.68
2018-07-17T03:00:13.942Z,169.28
2018-07-17T03:02:45.899Z,165.85
2018-07-17T03:05:16.987Z,166.85
2018-07-17T03:07:47.854Z,165.88
2018-07-17T03:10:19.023Z,173.68
2018-07-17T03:12:50.044Z,168.28
2018-07-17T03:15:21.090Z,167.87
2018-07-17T03:17:54.688Z,166.40
2018-07-17T03:20:27.433Z,166.88
2018-07-17T03:22:59.296Z,164.10
2018-07-17T03:25:30.959Z,167.70
2018-07-17T03:28:02.735Z,164.10
2018-07-17T03:30:34.186Z,164.62
2018-07-17T03:33:06.017Z,162.85
2018-07-17T03:35:38.615Z,167.40
2018-07-17T03:38:11.445Z,167.57
2018-07-17T03:40:42.499Z,167.93
2018-07-17T03:43:13.332Z,165.05
2018-07-17T03:45:44.347Z,168.52
2018-07-17T03:48:15.924Z,167.98
2018-07-17T03:50:46.853Z,166.05
2018-07-17T03:53:17.812Z,165.52
2018-07-17T03:55:48.890Z,169.43
2018-07-17T03:58:19.770Z,166.32
2018-07-17T04:00:50.808Z,167.82
2018-07-17T04:03:21.882Z,169.90
2018-07-17T04:05:52.987Z,170.17
2018-07-17T04:08:23.834Z,166.90
2018-07-17T04:10:54.845Z,167.90
2018-07-17T04:13:25.943Z,167.82
2018-07-17T04:15:56.913Z,167.47
2018-07-17T04:18:28.638Z,169.68
2018-07-17T04:21:00.047Z,169.50
2018-07-17T04:23:31.019Z,168.15
2018-07-17T04:26:02.090Z,172.35
2018-07-17T04:28:33.158Z,170.85
2018-07-17T04:31:04.288Z,171.75
2018-07-17T04:33:35.268Z,168.75
2018-07-17T04:36:06.425Z,166.03
2018-07-17T04:38:37.412Z,170.05
2018-07-17T04:41:08.639Z,168.45
2018-07-17T04:43:39.742Z,168.60
2018-07-17T04:46:10.900Z,170.68
2018-07-17T04:48:42.139Z,168.13
2018-07-17T04:51:13.075Z,165.25
2018-07-17T04:53:44.329Z,166.82
2018-07-17T04:56:15.415Z,171.13
2018-07-17T04:58:46.344Z,168.02
2018-07-17T05:01:17.231Z,165.37
2018-07-17T05:03:48.327Z,165.97
2018-07-17T05:06:19.602Z,165.97
2018-07-17T05:08:50.447Z,169.02
2018-07-17T05:11:21.511Z,167.10
2018-07-17T05:13:52.398Z,164.93
2018-07-17T05:16:23.501Z,169.87
2018-07-17T05:18:54.284Z,171.95
2018-07-17T05:21:25.452Z,178.00
2018-07-17T05:23:56.627Z,172.20
2018-07-17T05:26:29.256Z,175.27
2018-07-17T05:29:01.295Z,170.60
2018-07-17T05:31:32.407Z,173.05
2018-07-17T05:34:05.443Z,173.72
2018-07-17T05:36:36.699Z,167.07
2018-07-17T05:39:09.871Z,174.02
2018-07-17T05:41:40.779Z,172.10
2018-07-17T05:44:11.781Z,172.43
2018-07-17T05:46:43.111Z,171.95
2018-07-17T05:49:14.034Z,175.53
2018-07-17T05:51:45.335Z,173.30
2018-07-17T05:54:21.100Z,175.65
2018-07-17T05:56:54.350Z,174.57
2018-07-17T05:59:25.402Z,175.27
2018-07-17T06:01:58.109Z,176.05
2018-07-17T06:04:29.177Z,175.95
2018-07-17T06:07:00.256Z,176.07
2018-07-17T06:09:39.014Z,175.97
2018-07-17T06:12:12.149Z,175.03
2018-07-17T06:14:43.661Z,173.87
2018-07-17T06:17:15.432Z,173.55
2018-07-17T06:19:48.948Z,175.47
2018-07-17T06:22:19.923Z,176.22
2018-07-17T06:24:50.949Z,181.57
2018-07-17T06:27:21.809Z,175.30
2018-07-17T06:29:52.703Z,181.63
2018-07-17T06:32:23.703Z,178.93
2018-07-17T06:34:54.897Z,181.43
2018-07-17T06:37:26.440Z,183.40
2018-07-17T06:39:57.595Z,176.50
2018-07-17T06:42:28.792Z,177.70
2018-07-17T06:45:01.029Z,176.68
2018-07-17T06:47:32.939Z,184.15
2018-07-17T06:50:05.377Z,177.07
2018-07-17T06:52:44.776Z,180.05
2018-07-17T06:55:15.702Z,175.27
2018-07-17T06:57:51.348Z,177.72
2018-07-17T07:00:22.882Z,180.65
2018-07-17T07:02:56.392Z,180.97
2018-07-17T07:05:27.241Z,184.65
2018-07-17T07:08:03.142Z,181.50
2018-07-17T07:10:37.440Z,181.00
2018-07-17T07:13:09.812Z,178.87
2018-07-17T07:15:40.994Z,178.60
2018-07-17T07:18:12.863Z,179.78
2018-07-17T07:20:44.036Z,179.32
2018-07-17T07:23:15.023Z,182.22
2018-07-17T07:25:46.197Z,182.97
2018-07-17T07:28:16.951Z,178.47
2018-07-17T07:30:48.148Z,179.97
2018-07-17T07:33:19.102Z,180.22
2018-07-17T07:35:50.057Z,185.43
2018-07-17T07:38:22.346Z,188.55
2018-07-17T07:40:55.894Z,186.77
2018-07-17T07:43:26.895Z,182.82
2018-07-17T07:46:12.552Z,186.18
2018-07-17T07:48:49.444Z,188.80
2018-07-17T07:51:21.055Z,184.48
2018-07-17T07:53:52.417Z,216.23
2018-07-17T07:56:33.386Z,190.12
2018-07-17T07:59:06.466Z,189.90
2018-07-17T08:01:37.521Z,196.18
2018-07-17T08:04:18.267Z,190.75
2018-07-17T08:06:50.397Z,190.22
2018-07-17T08:09:24.446Z,190.97
2018-07-17T08:11:56.242Z,195.05
2018-07-17T08:14:27.440Z,196.28
2018-07-17T08:16:58.543Z,192.85
2018-07-17T08:19:29.596Z,196.45
2018-07-17T08:22:01.368Z,192.05
2018-07-17T08:24:32.812Z,190.47
2018-07-17T08:27:03.727Z,199.00
2018-07-17T08:29:35.036Z,194.05
2018-07-17T08:32:06.775Z,194.17
2018-07-17T08:34:38.046Z,196.87
2018-07-17T08:37:09.004Z,191.40
2018-07-17T08:39:39.821Z,190.80
2018-07-17T08:42:11.260Z,197.05
2018-07-17T08:44:42.427Z,199.95
2018-07-17T08:47:14.410Z,204.68
2018-07-17T08:49:45.808Z,202.57
2018-07-17T08:52:17.568Z,196.93
2018-07-17T08:54:49.086Z,195.97
2018-07-17T08:57:20.388Z,196.78
2018-07-17T08:59:53.890Z,199.55
2018-07-17T09:02:24.742Z,199.95
2018-07-17T09:04:55.834Z,194.67
2018-07-17T09:07:27.804Z,199.80
2018-07-17T09:09:59.172Z,193.37
2018-07-17T09:12:37.415Z,198.65
2018-07-17T09:15:09.328Z,194.43
2018-07-17T09:17:42.161Z,202.35
2018-07-17T09:20:13.403Z,199.32
2018-07-17T09:22:47.291Z,191.92
2018-07-17T09:25:20.124Z,192.60
2018-07-17T09:27:54.081Z,192.98
2018-07-17T09:30:25.356Z,194.77
2018-07-17T09:32:57.344Z,191.68
2018-07-17T09:35:29.036Z,193.20
2018-07-17T09:38:19.050Z,196.12
2018-07-17T09:41:20.425Z,202.05
2018-07-17T09:44:01.264Z,199.55
2018-07-17T09:46:38.287Z,204.55
2018-07-17T09:49:16.721Z,196.98
2018-07-17T09:51:48.439Z,194.05
2018-07-17T09:54:19.895Z,200.87
2018-07-17T09:57:08.601Z,198.93
2018-07-17T09:59:41.130Z,189.60
2018-07-17T10:02:18.072Z,195.40
2018-07-17T10:04:49.002Z,196.55
2018-07-17T10:07:29.474Z,194.28
2018-07-17T10:10:04.923Z,203.37
2018-07-17T10:12:36.401Z,202.47
2018-07-17T10:15:07.505Z,199.55
2018-07-17T10:17:43.413Z,193.93
2018-07-17T10:20:19.856Z,197.60
2018-07-17T10:22:52.192Z,207.85
2018-07-17T10:25:23.957Z,203.00
2018-07-17T10:27:54.872Z,207.70
2018-07-17T10:30:25.816Z,214.53
2018-07-17T10:32:57.076Z,199.40
2018-07-17T10:35:30.647Z,191.92
2018-07-17T10:38:03.568Z,193.28
2018-07-17T10:40:34.844Z,198.15
2018-07-17T10:43:11.114Z,195.15
2018-07-17T10:45:45.970Z,206.65
2018-07-17T10:48:17.153Z,194.60
2018-07-17T10:50:48.153Z,204.18
2018-07-17T10:53:30.188Z,209.92
2018-07-17T10:56:13.162Z,203.65
2018-07-17T10:58:48.189Z,201.32
2018-07-17T11:01:30.823Z,195.43
2018-07-17T11:04:13.280Z,200.07
2018-07-17T11:06:52.272Z,197.13
2018-07-17T11:09:35.669Z,198.43
2018-07-17T11:12:19.446Z,199.95
2018-07-17T11:14:52.967Z,206.55
2018-07-17T11:17:24.383Z,195.30
2018-07-17T11:19:55.694Z,195.65
2018-07-17T11:22:27.024Z,190.15
2018-07-17T11:24:58.056Z,199.65
2018-07-17T11:27:29.451Z,205.77
2018-07-17T11:30:00.599Z,190.28
2018-07-17T11:32:31.565Z,189.00
2018-07-17T11:35:03.947Z,196.15
2018-07-17T11:37:35.790Z,196.55
2018-07-17T11:40:06.955Z,193.02
2018-07-17T11:42:37.913Z,197.75
2018-07-17T11:45:19.451Z,190.50
2018-07-17T11:47:52.572Z,198.87
2018-07-17T11:52:52.688Z,200.22
2018-07-17T11:55:28.468Z,208.85
2018-07-17T11:57:59.753Z,201.67
2018-07-17T12:00:33.180Z,199.10
2018-07-17T12:03:07.067Z,200.45
2018-07-17T12:05:38.872Z,195.95
2018-07-17T12:08:10.986Z,199.77
2018-07-17T12:10:42.868Z,195.80
2018-07-17T12:13:22.179Z,192.53
2018-07-17T12:15:54.198Z,202.05
2018-07-17T12:18:25.673Z,194.47
2018-07-17T12:20:58.066Z,191.40
2018-07-17T12:23:30.285Z,189.80
2018-07-17T12:26:01.889Z,192.03
2018-07-17T12:28:33.632Z,198.60
2018-07-17T12:31:08.117Z,186.45
2018-07-17T12:33:40.885Z,187.03
2018-07-17T12:36:11.942Z,189.37
2018-07-17T12:38:43.707Z,183.65
2018-07-17T12:41:16.927Z,190.62
2018-07-17T12:43:48.526Z,180.35
2018-07-17T12:46:19.937Z,184.87
2018-07-17T12:48:51.613Z,185.28
2018-07-17T12:51:22.531Z,184.45
2018-07-17T12:53:53.467Z,177.78
2018-07-17T12:56:24.832Z,180.27
2018-07-17T12:58:55.759Z,182.02
2018-07-17T13:01:26.693Z,180.78
2018-07-17T13:03:57.525Z,187.72
2018-07-17T13:06:28.384Z,181.95
2018-07-17T13:08:59.529Z,184.10
2018-07-17T13:11:31.421Z,183.85
2018-07-17T13:14:03.766Z,180.78
2018-07-17T13:16:35.451Z,180.03
2018-07-17T13:19:06.345Z,181.35
2018-07-17T13:21:37.858Z,178.27
2018-07-17T13:24:08.894Z,182.47
2018-07-17T13:26:40.076Z,183.97
2018-07-17T13:29:16.054Z,180.85
2018-07-17T13:31:48.015Z,181.87
2018-07-17T13:34:19.296Z,186.05
2018-07-17T13:36:51.352Z,184.52
2018-07-17T13:39:27.231Z,183.97
2018-07-17T13:42:00.371Z,184.75
2018-07-17T13:44:32.136Z,187.50
2018-07-17T13:47:03.059Z,186.90
2018-07-17T13:49:33.931Z,181.45
2018-07-17T13:52:06.194Z,185.03
2018-07-17T13:54:37.104Z,193.75
2018-07-17T13:57:18.949Z,189.37
2018-07-17T13:59:53.444Z,188.30
2018-07-17T14:02:25.467Z,197.05
2018-07-17T14:04:56.826Z,203.35
2018-07-17T14:07:27.936Z,196.35
2018-07-17T14:09:59.307Z,196.40
2018-07-17T14:12:31.292Z,200.00
2018-07-17T14:15:04.231Z,200.32
2018-07-17T14:17:35.972Z,197.17
2018-07-17T14:20:10.744Z,195.97
2018-07-17T14:22:42.171Z,195.90
2018-07-17T14:25:13.579Z,202.05
2018-07-17T14:27:45.656Z,199.20
2018-07-17T14:30:19.857Z,198.28
2018-07-17T14:32:51.591Z,205.60
2018-07-17T14:35:23.283Z,194.43
2018-07-17T14:37:57.073Z,196.57
2018-07-17T14:40:32.850Z,204.00
2018-07-17T14:43:12.476Z,202.38
2018-07-17T14:45:45.107Z,197.82
2018-07-17T14:48:17.515Z,195.22
2018-07-17T14:50:51.359Z,199.62
2018-07-17T14:53:23.661Z,195.53
2018-07-17T14:55:55.790Z,197.07
2018-07-17T14:58:26.870Z,200.25
